createdAt,value
2022-08-24T00:01:11.202Z,69.88
2022-08-24T00:03:39.681Z,70.17
2022-08-24T00:06:09.350Z,70.80
2022-08-24T00:08:36.350Z,72.12
2022-08-24T00:11:03.994Z,71.16
2022-08-24T00:13:32.600Z,73.25
2022-08-24T00:16:04.285Z,72.50
2022-08-24T00:18:31.290Z,73.14
2022-08-24T00:20:58.110Z,72.44
2022-08-24T00:23:24.857Z,73.83
2022-08-24T00:25:52.116Z,72.33
2022-08-24T00:28:18.917Z,73.09
2022-08-24T00:30:45.691Z,73.04
2022-08-24T00:33:12.443Z,72.36
2022-08-24T00:35:39.931Z,71.89
2022-08-24T00:38:07.201Z,71.06
2022-08-24T00:40:37.554Z,73.19
2022-08-24T00:43:06.513Z,73.47
2022-08-24T00:45:48.021Z,74.23
2022-08-24T00:48:23.822Z,73.60
2022-08-24T00:50:57.103Z,72.51
2022-08-24T00:53:32.432Z,72.49
2022-08-24T00:56:03.921Z,72.71
2022-08-24T00:58:43.961Z,72.43
2022-08-24T01:01:12.567Z,72.59
2022-08-24T01:03:39.922Z,72.26
2022-08-24T01:06:06.822Z,71.80
2022-08-24T01:08:34.441Z,71.64
2022-08-24T01:11:03.782Z,71.03
2022-08-24T01:13:32.705Z,72.52
2022-08-24T01:16:03.236Z,72.66
2022-08-24T01:18:49.122Z,72.30
2022-08-24T01:21:19.132Z,71.92
2022-08-24T01:23:48.064Z,71.82
2022-08-24T01:26:22.857Z,74.43
2022-08-24T01:28:55.993Z,73.66
2022-08-24T01:31:25.161Z,73.04
2022-08-24T01:33:53.568Z,72.53
2022-08-24T01:36:36.306Z,73.70
2022-08-24T01:39:10.320Z,75.08
2022-08-24T01:41:38.263Z,75.57
2022-08-24T01:44:05.706Z,76.84
2022-08-24T01:46:32.634Z,78.62
2022-08-24T01:48:59.507Z,77.80
2022-08-24T01:51:33.667Z,75.59
2022-08-24T01:54:03.190Z,76.35
2022-08-24T01:56:31.400Z,78.72
2022-08-24T01:59:00.856Z,75.45
2022-08-24T02:01:30.385Z,76.18
2022-08-24T02:04:00.820Z,73.98
2022-08-24T02:06:27.557Z,74.04
2022-08-24T02:08:54.417Z,78.69
2022-08-24T02:11:21.237Z,77.00
2022-08-24T02:13:48.088Z,75.97
2022-08-24T02:16:15.258Z,76.30
2022-08-24T02:18:42.638Z,76.29
2022-08-24T02:21:11.585Z,74.17
2022-08-24T02:23:40.177Z,74.76
2022-08-24T02:26:09.190Z,76.68
2022-08-24T02:28:37.233Z,77.33
2022-08-24T02:31:06.119Z,76.50
2022-08-24T02:33:34.798Z,75.66
2022-08-24T02:36:02.225Z,74.99
2022-08-24T02:38:30.772Z,74.29
2022-08-24T02:40:58.129Z,75.07
2022-08-24T02:43:25.182Z,75.55
2022-08-24T02:45:52.248Z,76.08
2022-08-24T02:48:20.241Z,75.72
2022-08-24T02:50:49.667Z,73.74
2022-08-24T02:53:18.522Z,73.29
2022-08-24T02:55:45.883Z,74.50
2022-08-24T02:58:13.689Z,74.14
2022-08-24T03:00:45.186Z,72.09
2022-08-24T03:03:12.104Z,72.06
2022-08-24T03:05:39.272Z,72.03
2022-08-24T03:08:06.469Z,71.76
2022-08-24T03:10:33.592Z,71.56
2022-08-24T03:13:01.571Z,71.78
2022-08-24T03:15:30.171Z,72.65
2022-08-24T03:17:57.128Z,73.15
2022-08-24T03:20:25.058Z,74.68
2022-08-24T03:22:53.421Z,73.69
2022-08-24T03:25:24.728Z,73.00
2022-08-24T03:27:52.236Z,73.35
2022-08-24T03:30:19.185Z,74.13
2022-08-24T03:32:45.960Z,72.99
2022-08-24T03:35:14.355Z,71.83
2022-08-24T03:37:41.458Z,74.11
2022-08-24T03:40:22.450Z,72.84
2022-08-24T03:42:52.012Z,71.53
2022-08-24T03:45:19.276Z,72.53
2022-08-24T03:47:46.530Z,71.48
2022-08-24T03:50:14.603Z,71.72
2022-08-24T03:52:42.038Z,72.18
2022-08-24T03:55:10.449Z,73.47
2022-08-24T03:57:37.211Z,73.78
2022-08-24T04:00:11.512Z,73.22
2022-08-24T04:02:38.536Z,72.68
2022-08-24T04:05:07.378Z,72.14
2022-08-24T04:07:34.182Z,74.38
2022-08-24T04:10:02.047Z,73.96
2022-08-24T04:12:28.773Z,74.69
2022-08-24T04:14:58.433Z,73.40
2022-08-24T04:17:25.158Z,74.11
2022-08-24T04:19:58.208Z,73.44
2022-08-24T04:22:28.039Z,72.61
2022-08-24T04:24:54.946Z,75.18
2022-08-24T04:27:22.285Z,73.97
2022-08-24T04:29:49.221Z,73.31
2022-08-24T04:32:16.018Z,72.97
2022-08-24T04:34:44.272Z,72.73
2022-08-24T04:37:12.364Z,72.35
2022-08-24T04:39:39.850Z,71.74
2022-08-24T04:42:07.430Z,71.97
2022-08-24T04:44:36.526Z,72.00
2022-08-24T04:47:04.252Z,72.97
2022-08-24T04:49:31.463Z,72.03
2022-08-24T04:51:58.543Z,73.58
2022-08-24T04:54:25.402Z,73.71
2022-08-24T04:56:52.203Z,72.32
2022-08-24T04:59:19.564Z,72.64
2022-08-24T05:01:46.426Z,72.55
2022-08-24T05:04:13.732Z,72.26
2022-08-24T05:06:41.646Z,72.90
2022-08-24T05:09:09.533Z,73.13
2022-08-24T05:11:40.061Z,73.04
2022-08-24T05:14:09.669Z,76.55
2022-08-24T05:16:38.331Z,75.24
2022-08-24T05:19:07.367Z,75.68
2022-08-24T05:21:34.512Z,76.53
2022-08-24T05:24:01.300Z,74.98
2022-08-24T05:26:29.657Z,75.87
2022-08-24T05:28:59.214Z,75.75
2022-08-24T05:31:28.768Z,75.85
2022-08-24T05:33:56.365Z,78.00
2022-08-24T05:36:29.700Z,75.17
2022-08-24T05:39:00.698Z,75.18
2022-08-24T05:41:28.722Z,74.68
2022-08-24T05:43:56.042Z,72.85
2022-08-24T05:46:23.055Z,72.73
2022-08-24T05:48:52.941Z,72.39
2022-08-24T05:51:21.581Z,75.89
2022-08-24T05:53:48.659Z,72.31
2022-08-24T05:56:17.556Z,73.11
2022-08-24T05:58:44.738Z,72.16
2022-08-24T06:01:15.027Z,73.15
2022-08-24T06:03:42.421Z,73.58
2022-08-24T06:06:10.529Z,72.09
2022-08-24T06:08:43.021Z,71.90
2022-08-24T06:11:10.809Z,71.35
2022-08-24T06:13:37.729Z,73.97
2022-08-24T06:16:21.263Z,71.77
2022-08-24T06:18:50.060Z,72.28
2022-08-24T06:21:21.146Z,73.70
2022-08-24T06:23:48.493Z,75.63
2022-08-24T06:26:34.311Z,74.33
2022-08-24T06:29:02.527Z,72.26
2022-08-24T06:31:39.471Z,71.11
2022-08-24T06:34:12.031Z,72.67
2022-08-24T06:36:39.269Z,70.68
2022-08-24T06:39:09.997Z,72.65
2022-08-24T06:41:41.431Z,71.04
2022-08-24T06:44:09.008Z,69.51
2022-08-24T06:46:39.104Z,69.71
2022-08-24T06:49:06.072Z,69.34
2022-08-24T06:51:32.958Z,71.79
2022-08-24T06:54:00.585Z,71.45
2022-08-24T06:56:27.595Z,72.25
2022-08-24T06:58:54.410Z,71.01
2022-08-24T07:01:24.906Z,72.47
2022-08-24T07:03:52.654Z,72.17
2022-08-24T07:06:19.867Z,70.48
2022-08-24T07:08:46.775Z,71.74
2022-08-24T07:11:17.790Z,72.63
2022-08-24T07:13:47.524Z,70.52
2022-08-24T07:16:23.548Z,70.78
2022-08-24T07:18:52.525Z,67.22
2022-08-24T07:21:20.618Z,66.69
2022-08-24T07:23:54.084Z,67.30
2022-08-24T07:26:23.293Z,68.77
2022-08-24T07:29:07.082Z,66.67
2022-08-24T07:31:38.962Z,66.93
2022-08-24T07:34:08.874Z,66.54
2022-08-24T07:36:39.851Z,66.28
2022-08-24T07:39:10.562Z,66.80
2022-08-24T07:42:02.657Z,65.42
2022-08-24T07:44:31.305Z,64.44
2022-08-24T07:47:07.080Z,62.31
2022-08-24T07:49:45.906Z,61.51
2022-08-24T07:52:13.575Z,62.03
2022-08-24T07:54:41.263Z,59.37
2022-08-24T07:57:08.837Z,60.95
2022-08-24T07:59:36.838Z,59.22
2022-08-24T08:02:05.330Z,57.38
2022-08-24T08:04:33.057Z,56.99
2022-08-24T08:07:01.920Z,56.17
2022-08-24T08:09:29.447Z,55.71
2022-08-24T08:11:56.382Z,55.54
2022-08-24T08:14:23.496Z,55.42
2022-08-24T08:16:50.489Z,54.02
2022-08-24T08:19:17.846Z,56.32
2022-08-24T08:22:06.626Z,55.06
2022-08-24T08:24:33.627Z,52.80
2022-08-24T08:27:00.991Z,53.40
2022-08-24T08:29:28.588Z,50.11
2022-08-24T08:31:56.110Z,48.84
2022-08-24T08:34:23.421Z,50.19
2022-08-24T08:36:51.044Z,50.11
2022-08-24T08:39:20.502Z,51.38
2022-08-24T08:42:05.862Z,51.21
2022-08-24T08:45:03.524Z,50.51
2022-08-24T08:47:53.852Z,51.58
2022-08-24T08:50:50.413Z,51.44
2022-08-24T08:53:54.558Z,54.51
2022-08-24T08:56:43.384Z,53.84
2022-08-24T08:59:13.070Z,57.04
2022-08-24T09:01:50.214Z,54.99
2022-08-24T09:04:55.496Z,55.42
2022-08-24T09:08:04.029Z,53.77
2022-08-24T09:10:42.414Z,55.01
2022-08-24T09:13:27.318Z,56.14
2022-08-24T09:15:57.700Z,56.05
2022-08-24T09:18:43.659Z,56.05
2022-08-24T09:21:16.412Z,55.57
2022-08-24T09:24:01.546Z,54.88
2022-08-24T09:26:33.516Z,54.36
2022-08-24T09:29:15.362Z,55.51
2022-08-24T09:32:19.587Z,57.83
2022-08-24T09:35:00.538Z,56.60
2022-08-24T09:38:13.715Z,55.91
2022-08-24T09:40:40.709Z,55.82
2022-08-24T09:43:39.434Z,55.95
2022-08-24T09:46:36.300Z,58.15
2022-08-24T09:49:13.600Z,55.38
2022-08-24T09:51:59.510Z,54.40
2022-08-24T09:54:50.779Z,54.02
2022-08-24T09:58:00.180Z,52.97
2022-08-24T10:00:44.132Z,53.16
2022-08-24T10:03:42.354Z,51.73
2022-08-24T10:06:40.292Z,52.52
2022-08-24T10:09:34.586Z,50.65
2022-08-24T10:12:08.657Z,52.18
2022-08-24T10:14:41.345Z,52.74
2022-08-24T10:17:39.233Z,51.32
2022-08-24T10:20:23.586Z,53.06
2022-08-24T10:23:15.115Z,50.94
2022-08-24T10:26:10.091Z,49.78
2022-08-24T10:29:18.451Z,50.58
2022-08-24T10:32:07.916Z,52.46
2022-08-24T10:35:00.326Z,51.84
2022-08-24T10:38:14.583Z,50.47
2022-08-24T10:41:16.662Z,50.60
2022-08-24T10:43:59.374Z,51.90
2022-08-24T10:46:57.976Z,51.25
2022-08-24T10:49:32.458Z,50.65
2022-08-24T10:52:25.725Z,51.19
2022-08-24T10:54:52.932Z,49.82
2022-08-24T10:57:38.107Z,50.55
2022-08-24T11:00:23.034Z,49.04
2022-08-24T11:03:13.101Z,48.55
2022-08-24T11:05:47.538Z,48.82
2022-08-24T11:08:33.840Z,47.20
2022-08-24T11:11:07.058Z,46.81
2022-08-24T11:13:36.817Z,47.21
2022-08-24T11:16:06.359Z,45.77
2022-08-24T11:18:49.637Z,48.16
2022-08-24T11:21:32.127Z,51.04
2022-08-24T11:24:09.250Z,50.00
2022-08-24T11:26:53.606Z,50.04
2022-08-24T11:29:23.477Z,50.29
2022-08-24T11:31:52.809Z,51.08
2022-08-24T11:34:32.023Z,50.87
2022-08-24T11:36:59.286Z,54.16
2022-08-24T11:39:37.907Z,54.02
2022-08-24T11:42:10.953Z,54.36
2022-08-24T11:44:45.668Z,53.25
2022-08-24T11:47:31.107Z,55.17
2022-08-24T11:50:16.882Z,55.92
2022-08-24T11:53:20.019Z,55.38
2022-08-24T11:55:51.720Z,52.56
2022-08-24T11:58:34.572Z,52.16
2022-08-24T12:01:20.147Z,50.39
2022-08-24T12:03:55.843Z,52.54
2022-08-24T12:06:49.164Z,48.95
2022-08-24T12:09:53.822Z,49.42
2022-08-24T12:12:42.176Z,48.36
2022-08-24T12:15:21.309Z,50.55
2022-08-24T12:17:56.452Z,49.61
2022-08-24T12:20:32.239Z,49.40
2022-08-24T12:23:43.984Z,47.62
2022-08-24T12:26:45.963Z,46.43
2022-08-24T12:29:30.853Z,47.84
2022-08-24T12:32:03.636Z,48.05
2022-08-24T12:34:43.945Z,49.74
2022-08-24T12:37:18.284Z,46.72
2022-08-24T12:39:54.136Z,46.58
2022-08-24T12:42:48.619Z,47.40
2022-08-24T12:45:20.633Z,46.28
2022-08-24T12:47:50.862Z,47.52
2022-08-24T12:50:25.894Z,48.16
2022-08-24T12:53:04.785Z,47.81
2022-08-24T12:56:00.391Z,48.25
2022-08-24T12:58:51.791Z,47.23
2022-08-24T13:01:29.185Z,47.86
2022-08-24T13:04:14.455Z,50.05
2022-08-24T13:06:54.225Z,53.18
2022-08-24T13:09:35.591Z,55.49
2022-08-24T13:12:43.787Z,56.96
2022-08-24T13:15:26.170Z,56.69
2022-08-24T13:17:57.765Z,55.34
2022-08-24T13:20:50.404Z,53.81
2022-08-24T13:23:20.695Z,53.89
2022-08-24T13:25:47.527Z,52.35
2022-08-24T13:28:23.325Z,52.89
2022-08-24T13:31:03.187Z,51.79
2022-08-24T13:33:47.845Z,50.72
2022-08-24T13:36:30.107Z,53.56
2022-08-24T13:39:12.550Z,52.36
2022-08-24T13:42:01.211Z,51.53
2022-08-24T13:44:46.700Z,51.44
2022-08-24T13:47:48.217Z,51.67
2022-08-24T13:50:40.068Z,51.90
2022-08-24T13:53:13.145Z,50.99
2022-08-24T13:55:52.611Z,50.19
2022-08-24T13:58:26.908Z,49.90
2022-08-24T14:01:26.483Z,50.47
2022-08-24T14:04:34.675Z,49.83
2022-08-24T14:07:28.378Z,50.20
2022-08-24T14:10:43.073Z,47.32
2022-08-24T14:13:35.166Z,48.65
2022-08-24T14:16:52.739Z,47.43
2022-08-24T14:19:22.443Z,47.14
2022-08-24T14:21:53.726Z,47.77
2022-08-24T14:24:46.243Z,46.49
2022-08-24T14:27:29.079Z,45.86
2022-08-24T14:30:18.663Z,47.64
2022-08-24T14:32:58.561Z,47.33
2022-08-24T14:35:33.347Z,46.03
2022-08-24T14:38:18.478Z,45.23
2022-08-24T14:41:01.748Z,44.42
2022-08-24T14:44:13.238Z,44.89
2022-08-24T14:47:08.438Z,46.64
2022-08-24T14:49:45.686Z,47.54
2022-08-24T14:52:27.628Z,47.30
2022-08-24T14:55:18.900Z,46.35
2022-08-24T14:58:29.153Z,47.14
2022-08-24T15:01:25.121Z,47.25
2022-08-24T15:04:22.028Z,46.83
2022-08-24T15:07:33.003Z,46.87
2022-08-24T15:10:01.363Z,46.51
2022-08-24T15:13:11.203Z,47.17
2022-08-24T15:15:58.136Z,48.90
2022-08-24T15:19:11.703Z,49.00
2022-08-24T15:22:01.642Z,49.00
2022-08-24T15:24:34.594Z,49.28
2022-08-24T15:27:07.893Z,52.16
2022-08-24T15:29:46.754Z,51.42
2022-08-24T15:32:14.092Z,51.34
2022-08-24T15:34:48.974Z,50.31
2022-08-24T15:37:26.009Z,51.29
2022-08-24T15:39:52.856Z,50.82
2022-08-24T15:42:19.755Z,51.04
2022-08-24T15:44:50.481Z,51.20
2022-08-24T15:47:23.482Z,50.49
2022-08-24T15:50:08.902Z,51.69
2022-08-24T15:52:56.376Z,50.38
2022-08-24T15:55:32.297Z,52.94
2022-08-24T15:58:34.824Z,52.91
2022-08-24T16:01:39.393Z,53.81
2022-08-24T16:04:15.219Z,54.21
2022-08-24T16:06:45.415Z,54.98
2022-08-24T16:09:15.346Z,55.45
2022-08-24T16:11:49.159Z,54.40
2022-08-24T16:14:30.734Z,54.59
2022-08-24T16:16:59.440Z,53.27
2022-08-24T16:19:33.614Z,55.45
2022-08-24T16:22:02.409Z,56.23
2022-08-24T16:25:07.800Z,56.17
2022-08-24T16:28:10.480Z,54.72
2022-08-24T16:30:52.238Z,55.35
2022-08-24T16:33:54.758Z,55.74
2022-08-24T16:36:21.724Z,55.43
2022-08-24T16:38:50.811Z,56.94
2022-08-24T16:41:21.554Z,56.02
2022-08-24T16:43:49.193Z,57.51
2022-08-24T16:46:21.992Z,56.34
2022-08-24T16:48:49.102Z,56.04
2022-08-24T16:51:16.128Z,54.74
2022-08-24T16:53:43.040Z,56.72
2022-08-24T16:56:12.575Z,58.15
2022-08-24T16:58:43.536Z,62.83
2022-08-24T17:01:10.376Z,62.29
2022-08-24T17:03:37.248Z,63.95
2022-08-24T17:06:04.175Z,66.99
2022-08-24T17:08:31.154Z,67.68
2022-08-24T17:10:58.226Z,68.83
2022-08-24T17:13:48.300Z,67.84
2022-08-24T17:16:13.047Z,70.26
2022-08-24T17:18:41.727Z,68.40
2022-08-24T17:21:08.723Z,66.80
2022-08-24T17:23:36.548Z,65.66
2022-08-24T17:26:10.348Z,64.37
2022-08-24T17:28:48.815Z,64.55
2022-08-24T17:31:15.885Z,63.81
2022-08-24T17:33:42.732Z,63.04
2022-08-24T17:36:15.235Z,63.69
2022-08-24T17:38:47.205Z,61.31
2022-08-24T17:41:18.527Z,61.54
2022-08-24T17:43:46.467Z,61.74
2022-08-24T17:46:15.109Z,61.53
2022-08-24T17:48:46.238Z,62.02
2022-08-24T17:51:13.782Z,61.22
2022-08-24T17:53:41.126Z,61.10
2022-08-24T17:56:08.639Z,60.83
2022-08-24T17:58:55.906Z,59.92
2022-08-24T18:01:23.572Z,58.77
2022-08-24T18:03:50.800Z,58.89
2022-08-24T18:06:26.372Z,58.87
2022-08-24T18:08:56.859Z,58.62
2022-08-24T18:11:26.191Z,58.28
2022-08-24T18:13:53.787Z,58.23
2022-08-24T18:16:23.989Z,58.59
2022-08-24T18:18:52.535Z,58.89
2022-08-24T18:21:20.306Z,59.04
2022-08-24T18:23:48.828Z,59.01
2022-08-24T18:26:25.834Z,59.44
2022-08-24T18:28:55.115Z,59.33
2022-08-24T18:31:25.960Z,59.51
2022-08-24T18:33:52.948Z,59.06
2022-08-24T18:36:19.701Z,59.64
2022-08-24T18:38:46.745Z,59.55
2022-08-24T18:41:13.859Z,59.35
2022-08-24T18:43:40.704Z,59.57
2022-08-24T18:46:08.837Z,61.05
2022-08-24T18:48:36.391Z,60.41
2022-08-24T18:51:03.232Z,60.65
2022-08-24T18:53:30.331Z,60.92
2022-08-24T18:55:58.256Z,61.17
2022-08-24T18:58:26.576Z,61.49
2022-08-24T19:00:56.695Z,62.59
2022-08-24T19:03:25.882Z,62.42
2022-08-24T19:05:52.856Z,62.13
2022-08-24T19:08:19.778Z,62.74
2022-08-24T19:10:46.592Z,62.20
2022-08-24T19:13:18.649Z,63.50
2022-08-24T19:15:47.805Z,63.19
2022-08-24T19:18:21.472Z,63.03
2022-08-24T19:20:51.635Z,64.68
2022-08-24T19:23:39.335Z,65.14
2022-08-24T19:26:06.462Z,64.77
2022-08-24T19:28:33.557Z,64.62
2022-08-24T19:31:03.534Z,63.93
2022-08-24T19:33:38.631Z,63.89
2022-08-24T19:36:08.233Z,62.97
2022-08-24T19:38:35.201Z,63.12
2022-08-24T19:41:10.742Z,63.87
2022-08-24T19:44:00.303Z,63.88
2022-08-24T19:46:27.963Z,65.11
2022-08-24T19:48:54.971Z,66.35
2022-08-24T19:51:22.385Z,65.24
2022-08-24T19:53:49.248Z,64.87
2022-08-24T19:56:16.313Z,65.46
2022-08-24T19:58:52.654Z,64.92
2022-08-24T20:01:22.903Z,65.72
2022-08-24T20:03:49.937Z,67.92
2022-08-24T20:06:21.432Z,66.51
2022-08-24T20:08:48.663Z,68.00
2022-08-24T20:11:16.487Z,68.33
2022-08-24T20:13:43.863Z,68.25
2022-08-24T20:16:16.759Z,69.73
2022-08-24T20:18:44.505Z,68.33
2022-08-24T20:21:11.841Z,69.13
2022-08-24T20:23:39.084Z,71.58
2022-08-24T20:26:08.416Z,74.14
2022-08-24T20:28:46.372Z,77.11
2022-08-24T20:31:15.168Z,73.94
2022-08-24T20:33:42.450Z,73.04
2022-08-24T20:36:25.669Z,73.76
2022-08-24T20:38:55.652Z,74.37
2022-08-24T20:41:23.704Z,73.64
2022-08-24T20:43:50.846Z,74.86
2022-08-24T20:46:17.803Z,72.56
2022-08-24T20:48:46.765Z,74.44
2022-08-24T20:51:22.656Z,72.62
2022-08-24T20:53:49.507Z,74.35
2022-08-24T20:56:29.875Z,76.35
2022-08-24T20:59:01.379Z,80.79
2022-08-24T21:01:28.250Z,79.27
2022-08-24T21:03:55.295Z,81.53
2022-08-24T21:06:22.076Z,80.65
2022-08-24T21:08:51.977Z,78.23
2022-08-24T21:11:19.091Z,78.20
2022-08-24T21:13:46.703Z,76.99
2022-08-24T21:16:16.292Z,76.79
2022-08-24T21:18:43.696Z,76.50
2022-08-24T21:21:13.475Z,75.52
2022-08-24T21:23:40.521Z,74.01
2022-08-24T21:26:10.638Z,73.73
2022-08-24T21:28:41.461Z,73.27
2022-08-24T21:31:08.848Z,72.64
2022-08-24T21:33:54.180Z,72.95
2022-08-24T21:36:24.190Z,72.38
2022-08-24T21:38:53.453Z,72.22
2022-08-24T21:41:21.326Z,72.04
2022-08-24T21:43:48.106Z,71.65
2022-08-24T21:46:15.368Z,69.79
2022-08-24T21:48:42.251Z,69.88
2022-08-24T21:51:09.332Z,73.81
2022-08-24T21:53:37.247Z,71.82
2022-08-24T21:56:04.462Z,71.37
2022-08-24T21:58:31.480Z,72.25
2022-08-24T22:00:59.532Z,72.26
2022-08-24T22:03:31.653Z,71.72
2022-08-24T22:06:08.705Z,70.53
2022-08-24T22:08:36.779Z,70.09
2022-08-24T22:11:04.098Z,69.90
2022-08-24T22:13:30.997Z,70.40
2022-08-24T22:15:57.858Z,70.81
2022-08-24T22:18:24.625Z,70.52
2022-08-24T22:20:51.593Z,69.47
2022-08-24T22:23:18.384Z,69.87
2022-08-24T22:25:45.450Z,70.74
2022-08-24T22:28:12.169Z,70.60
2022-08-24T22:30:38.926Z,70.05
2022-08-24T22:33:06.136Z,69.33
2022-08-24T22:35:34.528Z,71.20
2022-08-24T22:38:11.998Z,70.22
2022-08-24T22:40:38.878Z,72.75
2022-08-24T22:43:05.978Z,74.75
2022-08-24T22:45:33.006Z,73.69
2022-08-24T22:47:59.785Z,73.52
2022-08-24T22:50:26.646Z,73.18
2022-08-24T22:52:54.006Z,74.56
2022-08-24T22:55:21.037Z,74.57
2022-08-24T22:57:51.402Z,74.34
2022-08-24T23:00:18.876Z,74.23
2022-08-24T23:02:45.634Z,73.94
2022-08-24T23:05:12.593Z,73.44
2022-08-24T23:07:39.403Z,72.08
2022-08-24T23:10:07.052Z,71.97
2022-08-24T23:12:33.894Z,71.04
2022-08-24T23:15:00.816Z,70.90
2022-08-24T23:17:27.632Z,69.87
2022-08-24T23:20:00.704Z,69.06
2022-08-24T23:22:37.968Z,70.40
2022-08-24T23:25:07.527Z,70.67
2022-08-24T23:27:38.495Z,70.34
2022-08-24T23:30:12.273Z,69.96
2022-08-24T23:32:39.541Z,70.51
2022-08-24T23:35:07.012Z,70.41
2022-08-24T23:37:34.030Z,70.14
2022-08-24T23:40:01.141Z,69.54
2022-08-24T23:42:28.165Z,69.74
2022-08-24T23:44:55.204Z,69.28
2022-08-24T23:47:21.965Z,68.81
2022-08-24T23:49:48.810Z,68.45
2022-08-24T23:52:26.482Z,69.58
2022-08-24T23:55:07.107Z,72.85
2022-08-24T23:57:43.474Z,72.96
